sensor_id;sensor_type;location;lat;lon;timestamp;pressure;altitude;pressure_sealevel;temperature;humidity
52227;BME280;38190;59.928;10.446;2022-07-05T00:02:50;99854.38;;;8.45;100.00
52227;BME280;38190;59.928;10.446;2022-07-05T00:05:55;99817.78;;;8.19;100.00
52227;BME280;38190;59.928;10.446;2022-07-05T00:09:00;99850.00;;;8.27;100.00
52227;BME280;38190;59.928;10.446;2022-07-05T00:12:03;99836.06;;;8.14;100.00
52227;BME280;38190;59.928;10.446;2022-07-05T00:15:05;99830.88;;;8.00;100.00
52227;BME280;38190;59.928;10.446;2022-07-05T00:18:09;99856.13;;;8.07;100.00
52227;BME280;38190;59.928;10.446;2022-07-05T00:21:10;99874.44;;;7.97;100.00
52227;BME280;38190;59.928;10.446;2022-07-05T00:24:10;99843.91;;;7.91;100.00
52227;BME280;38190;59.928;10.446;2022-07-05T00:27:13;99875.28;;;7.95;100.00
52227;BME280;38190;59.928;10.446;2022-07-05T00:30:13;99867.44;;;7.77;100.00
52227;BME280;38190;59.928;10.446;2022-07-05T00:33:16;99861.34;;;7.76;100.00
52227;BME280;38190;59.928;10.446;2022-07-05T00:36:19;99835.19;;;7.61;100.00
52227;BME280;38190;59.928;10.446;2022-07-05T00:39:21;99845.66;;;7.58;100.00
52227;BME280;38190;59.928;10.446;2022-07-05T00:42:22;99882.25;;;7.70;100.00
52227;BME280;38190;59.928;10.446;2022-07-05T00:45:24;99898.81;;;7.79;100.00
52227;BME280;38190;59.928;10.446;2022-07-05T00:48:25;99883.06;;;7.51;100.00
52227;BME280;38190;59.928;10.446;2022-07-05T00:51:31;99907.44;;;7.45;100.00
52227;BME280;38190;59.928;10.446;2022-07-05T00:54:35;99897.00;;;7.53;100.00
52227;BME280;38190;59.928;10.446;2022-07-05T00:57:37;99897.88;;;7.61;100.00
52227;BME280;38190;59.928;10.446;2022-07-05T01:00:38;99906.53;;;7.45;100.00
52227;BME280;38190;59.928;10.446;2022-07-05T01:03:41;99856.84;;;7.09;100.00
52227;BME280;38190;59.928;10.446;2022-07-05T01:06:48;99883.03;;;7.34;100.00
52227;BME280;38190;59.928;10.446;2022-07-05T01:09:50;99848.16;;;7.16;100.00
52227;BME280;38190;59.928;10.446;2022-07-05T01:12:53;99862.91;;;7.11;100.00
52227;BME280;38190;59.928;10.446;2022-07-05T01:15:58;99890.81;;;7.17;100.00
52227;BME280;38190;59.928;10.446;2022-07-05T01:19:03;99844.59;;;6.93;100.00
52227;BME280;38190;59.928;10.446;2022-07-05T01:22:16;99864.72;;;7.26;100.00
52227;BME280;38190;59.928;10.446;2022-07-05T01:25:24;99841.16;;;7.08;100.00
52227;BME280;38190;59.928;10.446;2022-07-05T01:28:30;99908.22;;;7.23;100.00
52227;BME280;38190;59.928;10.446;2022-07-05T01:31:44;99860.22;;;6.91;100.00
52227;BME280;38190;59.928;10.446;2022-07-05T01:34:50;99873.28;;;6.94;100.00
52227;BME280;38190;59.928;10.446;2022-07-05T01:38:47;99847.16;;;6.88;100.00
52227;BME280;38190;59.928;10.446;2022-07-05T01:42:09;99862.78;;;6.79;100.00
52227;BME280;38190;59.928;10.446;2022-07-05T01:45:13;99899.34;;;6.82;100.00
52227;BME280;38190;59.928;10.446;2022-07-05T01:48:45;99885.34;;;6.68;100.00
52227;BME280;38190;59.928;10.446;2022-07-05T01:52:10;99863.59;;;6.72;100.00
52227;BME280;38190;59.928;10.446;2022-07-05T01:55:45;99880.19;;;6.83;100.00
52227;BME280;38190;59.928;10.446;2022-07-05T01:58:53;99850.53;;;6.62;100.00
52227;BME280;38190;59.928;10.446;2022-07-05T02:02:10;99927.34;;;7.23;100.00
52227;BME280;38190;59.928;10.446;2022-07-05T02:05:19;99851.34;;;6.52;100.00
52227;BME280;38190;59.928;10.446;2022-07-05T02:08:30;99895.88;;;6.89;100.00
52227;BME280;38190;59.928;10.446;2022-07-05T02:12:00;99852.16;;;6.45;100.00
52227;BME280;38190;59.928;10.446;2022-07-05T02:15:23;99845.16;;;6.35;100.00
52227;BME280;38190;59.928;10.446;2022-07-05T02:18:39;99852.88;;;6.25;100.00
52227;BME280;38190;59.928;10.446;2022-07-05T02:22:05;99860.72;;;6.28;100.00
52227;BME280;38190;59.928;10.446;2022-07-05T02:25:14;99884.22;;;6.33;100.00
52227;BME280;38190;59.928;10.446;2022-07-05T02:28:18;99911.22;;;6.40;100.00
52227;BME280;38190;59.928;10.446;2022-07-05T02:31:33;99906.03;;;6.43;100.00
52227;BME280;38190;59.928;10.446;2022-07-05T02:35:35;99882.50;;;6.31;100.00
52227;BME280;38190;59.928;10.446;2022-07-05T02:39:14;99918.16;;;6.38;100.00
52227;BME280;38190;59.928;10.446;2022-07-05T02:42:53;99911.19;;;6.37;100.00
52227;BME280;38190;59.928;10.446;2022-07-05T02:46:04;99883.22;;;6.17;100.00
52227;BME280;38190;59.928;10.446;2022-07-05T02:49:36;99915.63;;;6.45;100.00
52227;BME280;38190;59.928;10.446;2022-07-05T02:53:00;99922.53;;;6.39;100.00
52227;BME280;38190;59.928;10.446;2022-07-05T02:56:08;99967.84;;;6.59;100.00
52227;BME280;38190;59.928;10.446;2022-07-05T02:59:20;99977.41;;;6.57;100.00
52227;BME280;38190;59.928;10.446;2022-07-05T03:02:41;99932.00;;;6.27;100.00
52227;BME280;38190;59.928;10.446;2022-07-05T03:06:20;99935.50;;;6.33;100.00
52227;BME280;38190;59.928;10.446;2022-07-05T03:09:47;99910.16;;;6.15;100.00
52227;BME280;38190;59.928;10.446;2022-07-05T03:13:06;99924.00;;;6.12;100.00
52227;BME280;38190;59.928;10.446;2022-07-05T03:16:15;99933.69;;;6.22;100.00
52227;BME280;38190;59.928;10.446;2022-07-05T03:19:41;99913.59;;;6.14;100.00
52227;BME280;38190;59.928;10.446;2022-07-05T03:22:51;99900.56;;;6.12;100.00
52227;BME280;38190;59.928;10.446;2022-07-05T03:26:04;99899.69;;;6.10;100.00
52227;BME280;38190;59.928;10.446;2022-07-05T03:29:10;99944.25;;;6.41;100.00
52227;BME280;38190;59.928;10.446;2022-07-05T03:32:43;99942.50;;;6.40;100.00
52227;BME280;38190;59.928;10.446;2022-07-05T03:36:32;99943.59;;;6.71;100.00
52227;BME280;38190;59.928;10.446;2022-07-05T03:39:38;99920.91;;;6.58;100.00
52227;BME280;38190;59.928;10.446;2022-07-05T03:42:51;99948.00;;;6.75;100.00
52227;BME280;38190;59.928;10.446;2022-07-05T03:46:05;99907.06;;;6.68;100.00
52227;BME280;38190;59.928;10.446;2022-07-05T03:49:24;99951.63;;;7.00;100.00
52227;BME280;38190;59.928;10.446;2022-07-05T03:52:32;99950.00;;;7.27;100.00
52227;BME280;38190;59.928;10.446;2022-07-05T03:56:03;99930.06;;;7.43;100.00
52227;BME280;38190;59.928;10.446;2022-07-05T03:59:26;99959.78;;;7.88;100.00
52227;BME280;38190;59.928;10.446;2022-07-05T04:02:30;99937.16;;;8.00;99.32
52227;BME280;38190;59.928;10.446;2022-07-05T04:05:59;99910.16;;;8.08;99.27
52227;BME280;38190;59.928;10.446;2022-07-05T04:09:05;99959.03;;;8.56;98.24
52227;BME280;38190;59.928;10.446;2022-07-05T04:12:15;99957.25;;;8.73;97.34
52227;BME280;38190;59.928;10.446;2022-07-05T04:15:17;99953.72;;;8.88;97.31
52227;BME280;38190;59.928;10.446;2022-07-05T04:18:25;99938.88;;;8.92;95.50
52227;BME280;38190;59.928;10.446;2022-07-05T04:21:39;99914.47;;;8.88;93.82
52227;BME280;38190;59.928;10.446;2022-07-05T04:24:52;99950.19;;;9.09;93.39
52227;BME280;38190;59.928;10.446;2022-07-05T04:28:15;99944.06;;;9.10;92.95
52227;BME280;38190;59.928;10.446;2022-07-05T04:31:19;99947.50;;;9.26;95.81
52227;BME280;38190;59.928;10.446;2022-07-05T04:34:23;99964.91;;;9.44;96.19
52227;BME280;38190;59.928;10.446;2022-07-05T04:37:26;99972.75;;;9.50;94.13
52227;BME280;38190;59.928;10.446;2022-07-05T04:40:28;99955.28;;;9.49;94.44
52227;BME280;38190;59.928;10.446;2022-07-05T04:43:34;99940.38;;;9.64;93.71
52227;BME280;38190;59.928;10.446;2022-07-05T04:46:35;99937.66;;;9.77;93.44
52227;BME280;38190;59.928;10.446;2022-07-05T04:49:36;99998.53;;;10.26;94.01
52227;BME280;38190;59.928;10.446;2022-07-05T04:52:36;100002.03;;;10.29;93.84
52227;BME280;38190;59.928;10.446;2022-07-05T04:55:37;100012.31;;;10.62;96.19
52227;BME280;38190;59.928;10.446;2022-07-05T04:58:37;100006.94;;;10.76;96.53
52227;BME280;38190;59.928;10.446;2022-07-05T05:01:38;100003.38;;;10.86;95.43
52227;BME280;38190;59.928;10.446;2022-07-05T05:04:39;100012.78;;;11.05;94.97
52227;BME280;38190;59.928;10.446;2022-07-05T05:07:43;99998.75;;;11.10;94.58
52227;BME280;38190;59.928;10.446;2022-07-05T05:10:44;100013.47;;;11.26;93.72
52227;BME280;38190;59.928;10.446;2022-07-05T05:13:44;100014.31;;;11.28;93.72
52227;BME280;38190;59.928;10.446;2022-07-05T05:16:47;100020.34;;;11.38;91.58
52227;BME280;38190;59.928;10.446;2022-07-05T05:19:47;100008.06;;;11.40;90.77
52227;BME280;38190;59.928;10.446;2022-07-05T05:22:48;100021.94;;;11.53;89.11
52227;BME280;38190;59.928;10.446;2022-07-05T05:25:49;100029.59;;;11.71;87.74
52227;BME280;38190;59.928;10.446;2022-07-05T05:28:50;100011.50;;;11.45;88.77
52227;BME280;38190;59.928;10.446;2022-07-05T05:31:50;100011.44;;;11.50;89.25
52227;BME280;38190;59.928;10.446;2022-07-05T05:34:51;100017.25;;;11.76;91.44
52227;BME280;38190;59.928;10.446;2022-07-05T05:37:53;100028.53;;;11.86;89.05
52227;BME280;38190;59.928;10.446;2022-07-05T05:40:54;100028.22;;;12.12;90.65
52227;BME280;38190;59.928;10.446;2022-07-05T05:43:55;100015.53;;;12.39;87.73
52227;BME280;38190;59.928;10.446;2022-07-05T05:46:55;100013.56;;;12.55;87.86
52227;BME280;38190;59.928;10.446;2022-07-05T05:49:56;100013.50;;;12.58;87.21
52227;BME280;38190;59.928;10.446;2022-07-05T05:52:56;100032.16;;;12.97;86.60
52227;BME280;38190;59.928;10.446;2022-07-05T05:55:57;100033.78;;;13.06;84.46
52227;BME280;38190;59.928;10.446;2022-07-05T05:58:57;100024.50;;;13.35;83.31
52227;BME280;38190;59.928;10.446;2022-07-05T06:01:58;100007.53;;;13.48;80.85
52227;BME280;38190;59.928;10.446;2022-07-05T06:04:58;100020.97;;;13.36;82.52
52227;BME280;38190;59.928;10.446;2022-07-05T06:07:59;100025.03;;;13.52;82.65
52227;BME280;38190;59.928;10.446;2022-07-05T06:10:59;100020.63;;;13.53;81.55
52227;BME280;38190;59.928;10.446;2022-07-05T06:14:00;100032.34;;;13.38;83.10
52227;BME280;38190;59.928;10.446;2022-07-05T06:17:00;100037.13;;;13.16;84.37
52227;BME280;38190;59.928;10.446;2022-07-05T06:20:10;100019.22;;;12.83;83.87
52227;BME280;38190;59.928;10.446;2022-07-05T06:23:11;100030.78;;;12.76;82.01
52227;BME280;38190;59.928;10.446;2022-07-05T06:26:11;100041.31;;;12.76;82.18
52227;BME280;38190;59.928;10.446;2022-07-05T06:29:12;100022.06;;;12.71;83.36
52227;BME280;38190;59.928;10.446;2022-07-05T06:32:12;100022.41;;;13.01;84.18
52227;BME280;38190;59.928;10.446;2022-07-05T06:35:13;100023.16;;;13.09;85.05
52227;BME280;38190;59.928;10.446;2022-07-05T06:38:14;100021.38;;;13.13;83.44
52227;BME280;38190;59.928;10.446;2022-07-05T06:41:14;100027.53;;;13.10;79.21
52227;BME280;38190;59.928;10.446;2022-07-05T06:44:15;100047.97;;;13.47;81.23
52227;BME280;38190;59.928;10.446;2022-07-05T06:47:15;100035.69;;;13.46;77.75
52227;BME280;38190;59.928;10.446;2022-07-05T06:50:16;100031.38;;;13.42;75.99
52227;BME280;38190;59.928;10.446;2022-07-05T06:53:16;100032.59;;;13.71;78.69
52227;BME280;38190;59.928;10.446;2022-07-05T06:56:17;100039.84;;;14.01;72.70
52227;BME280;38190;59.928;10.446;2022-07-05T06:59:17;100040.47;;;14.13;69.12
52227;BME280;38190;59.928;10.446;2022-07-05T07:02:18;100037.84;;;14.52;70.77
52227;BME280;38190;59.928;10.446;2022-07-05T07:05:21;100039.59;;;14.89;69.34
52227;BME280;38190;59.928;10.446;2022-07-05T07:08:22;100054.44;;;15.29;67.73
52227;BME280;38190;59.928;10.446;2022-07-05T07:11:52;100033.44;;;15.56;63.69
52227;BME280;38190;59.928;10.446;2022-07-05T07:14:52;100052.59;;;15.64;60.06
52227;BME280;38190;59.928;10.446;2022-07-05T07:17:52;100032.69;;;15.50;64.70
52227;BME280;38190;59.928;10.446;2022-07-05T07:20:53;100013.88;;;15.61;59.45
52227;BME280;38190;59.928;10.446;2022-07-05T07:23:54;100027.97;;;15.93;60.88
52227;BME280;38190;59.928;10.446;2022-07-05T07:26:54;100020.00;;;16.23;58.51
52227;BME280;38190;59.928;10.446;2022-07-05T07:30:05;100030.69;;;16.76;53.80
52227;BME280;38190;59.928;10.446;2022-07-05T07:33:05;100047.72;;;16.96;54.01
52227;BME280;38190;59.928;10.446;2022-07-05T07:36:06;100030.13;;;17.20;53.37
52227;BME280;38190;59.928;10.446;2022-07-05T07:39:06;100034.44;;;17.48;51.43
52227;BME280;38190;59.928;10.446;2022-07-05T07:42:07;100047.81;;;17.45;55.35
52227;BME280;38190;59.928;10.446;2022-07-05T07:45:09;100046.84;;;17.73;49.07
52227;BME280;38190;59.928;10.446;2022-07-05T07:48:09;100046.13;;;18.60;54.22
52227;BME280;38190;59.928;10.446;2022-07-05T07:51:10;100041.31;;;19.13;46.85
52227;BME280;38190;59.928;10.446;2022-07-05T07:54:10;100045.13;;;19.07;45.77
52227;BME280;38190;59.928;10.446;2022-07-05T07:57:11;100036.31;;;18.62;54.70
52227;BME280;38190;59.928;10.446;2022-07-05T08:00:12;100040.72;;;19.06;51.56
52227;BME280;38190;59.928;10.446;2022-07-05T08:03:12;100029.47;;;19.61;49.64
52227;BME280;38190;59.928;10.446;2022-07-05T08:06:13;100025.94;;;19.20;46.61
52227;BME280;38190;59.928;10.446;2022-07-05T08:09:14;100030.53;;;18.95;49.07
52227;BME280;38190;59.928;10.446;2022-07-05T08:12:14;100023.44;;;19.37;46.81
52227;BME280;38190;59.928;10.446;2022-07-05T08:15:15;100031.59;;;18.25;48.24
52227;BME280;38190;59.928;10.446;2022-07-05T08:18:15;100029.41;;;19.42;50.20
52227;BME280;38190;59.928;10.446;2022-07-05T08:21:34;100047.81;;;20.07;45.28
52227;BME280;38190;59.928;10.446;2022-07-05T08:24:38;100048.84;;;19.65;44.47
52227;BME280;38190;59.928;10.446;2022-07-05T08:27:41;100053.97;;;19.28;48.74
52227;BME280;38190;59.928;10.446;2022-07-05T08:30:42;100046.25;;;20.41;48.87
52227;BME280;38190;59.928;10.446;2022-07-05T08:33:42;100048.06;;;21.98;45.33
52227;BME280;38190;59.928;10.446;2022-07-05T08:36:43;100068.16;;;22.21;38.04
52227;BME280;38190;59.928;10.446;2022-07-05T08:39:44;100050.19;;;22.24;36.87
52227;BME280;38190;59.928;10.446;2022-07-05T08:42:45;100064.09;;;21.47;44.01
52227;BME280;38190;59.928;10.446;2022-07-05T08:45:46;100061.28;;;21.15;39.72
52227;BME280;38190;59.928;10.446;2022-07-05T08:48:50;100066.16;;;21.42;42.46
52227;BME280;38190;59.928;10.446;2022-07-05T08:51:52;100076.38;;;21.33;40.82
52227;BME280;38190;59.928;10.446;2022-07-05T08:54:54;100061.25;;;21.67;40.25
52227;BME280;38190;59.928;10.446;2022-07-05T08:57:55;100064.31;;;22.26;41.76
52227;BME280;38190;59.928;10.446;2022-07-05T09:00:56;100055.75;;;22.04;42.45
52227;BME280;38190;59.928;10.446;2022-07-05T09:03:59;100079.72;;;22.05;42.43
52227;BME280;38190;59.928;10.446;2022-07-05T09:07:03;100064.25;;;22.60;37.23
52227;BME280;38190;59.928;10.446;2022-07-05T09:10:05;100076.69;;;21.96;42.40
52227;BME280;38190;59.928;10.446;2022-07-05T09:13:07;100067.91;;;23.50;42.60
52227;BME280;38190;59.928;10.446;2022-07-05T09:16:08;100071.41;;;23.21;45.60
52227;BME280;38190;59.928;10.446;2022-07-05T09:19:08;100067.84;;;24.38;36.30
52227;BME280;38190;59.928;10.446;2022-07-05T09:22:09;100058.81;;;23.38;39.50
52227;BME280;38190;59.928;10.446;2022-07-05T09:25:19;100068.16;;;24.19;34.60
52227;BME280;38190;59.928;10.446;2022-07-05T09:28:21;100067.22;;;23.32;35.55
52227;BME280;38190;59.928;10.446;2022-07-05T09:31:29;100066.47;;;22.83;38.90
52227;BME280;38190;59.928;10.446;2022-07-05T09:34:30;100075.16;;;23.33;36.17
52227;BME280;38190;59.928;10.446;2022-07-05T09:37:43;100060.91;;;23.92;36.93
52227;BME280;38190;59.928;10.446;2022-07-05T09:40:49;100080.00;;;22.96;42.93
52227;BME280;38190;59.928;10.446;2022-07-05T09:43:50;100077.66;;;22.10;40.61
52227;BME280;38190;59.928;10.446;2022-07-05T09:47:06;100084.00;;;21.92;38.99
52227;BME280;38190;59.928;10.446;2022-07-05T09:50:07;100063.44;;;23.65;36.13
52227;BME280;38190;59.928;10.446;2022-07-05T09:53:09;100061.69;;;23.35;37.52
52227;BME280;38190;59.928;10.446;2022-07-05T09:56:12;100077.59;;;23.08;35.00
52227;BME280;38190;59.928;10.446;2022-07-05T09:59:16;100076.03;;;23.93;34.51
52227;BME280;38190;59.928;10.446;2022-07-05T10:02:34;100055.19;;;23.39;33.76
52227;BME280;38190;59.928;10.446;2022-07-05T10:05:34;100065.91;;;23.53;38.33
52227;BME280;38190;59.928;10.446;2022-07-05T10:08:35;100068.09;;;24.47;39.31
52227;BME280;38190;59.928;10.446;2022-07-05T10:11:43;100060.91;;;24.62;36.88
52227;BME280;38190;59.928;10.446;2022-07-05T10:14:44;100067.31;;;24.04;41.29
52227;BME280;38190;59.928;10.446;2022-07-05T10:17:47;100080.97;;;23.70;36.44
52227;BME280;38190;59.928;10.446;2022-07-05T10:20:50;100061.50;;;22.45;42.16
52227;BME280;38190;59.928;10.446;2022-07-05T10:23:53;100066.56;;;22.34;38.19
52227;BME280;38190;59.928;10.446;2022-07-05T10:26:54;100064.72;;;21.69;37.51
52227;BME280;38190;59.928;10.446;2022-07-05T10:29:55;100070.22;;;20.41;39.87
52227;BME280;38190;59.928;10.446;2022-07-05T10:32:56;100060.97;;;23.17;38.93
52227;BME280;38190;59.928;10.446;2022-07-05T10:35:58;100069.44;;;24.13;44.39
52227;BME280;38190;59.928;10.446;2022-07-05T10:38:59;100046.81;;;25.26;36.78
52227;BME280;38190;59.928;10.446;2022-07-05T10:42:00;100064.75;;;25.26;38.44
52227;BME280;38190;59.928;10.446;2022-07-05T10:45:02;100066.44;;;25.54;33.31
52227;BME280;38190;59.928;10.446;2022-07-05T10:54:15;100070.41;;;23.08;38.00
52227;BME280;38190;59.928;10.446;2022-07-05T10:57:23;100072.97;;;22.32;38.37
52227;BME280;38190;59.928;10.446;2022-07-05T11:00:23;100069.13;;;21.70;40.06
52227;BME280;38190;59.928;10.446;2022-07-05T11:03:37;100092.16;;;21.55;42.75
52227;BME280;38190;59.928;10.446;2022-07-05T11:09:58;100073.78;;;21.49;41.39
52227;BME280;38190;59.928;10.446;2022-07-05T11:12:59;100076.31;;;21.86;38.35
52227;BME280;38190;59.928;10.446;2022-07-05T11:19:22;100072.72;;;24.31;40.40
52227;BME280;38190;59.928;10.446;2022-07-05T11:22:23;100070.25;;;24.97;36.65
52227;BME280;38190;59.928;10.446;2022-07-05T11:25:23;100079.56;;;24.08;37.84
52227;BME280;38190;59.928;10.446;2022-07-05T11:28:24;100090.13;;;23.07;41.86
52227;BME280;38190;59.928;10.446;2022-07-05T11:31:40;100078.94;;;22.19;43.60
52227;BME280;38190;59.928;10.446;2022-07-05T11:34:44;100081.91;;;22.78;42.05
52227;BME280;38190;59.928;10.446;2022-07-05T11:38:05;100081.50;;;21.89;43.75
52227;BME280;38190;59.928;10.446;2022-07-05T11:41:14;100084.91;;;21.05;41.65
52227;BME280;38190;59.928;10.446;2022-07-05T11:44:16;100090.09;;;20.34;42.63
52227;BME280;38190;59.928;10.446;2022-07-05T11:47:17;100090.16;;;19.73;43.44
52227;BME280;38190;59.928;10.446;2022-07-05T11:50:33;100072.13;;;19.60;46.76
52227;BME280;38190;59.928;10.446;2022-07-05T11:53:34;100081.50;;;19.89;48.46
52227;BME280;38190;59.928;10.446;2022-07-05T11:56:35;100084.38;;;19.84;41.81
52227;BME280;38190;59.928;10.446;2022-07-05T11:59:35;100096.09;;;20.20;43.72
52227;BME280;38190;59.928;10.446;2022-07-05T12:02:43;100094.91;;;21.54;42.41
52227;BME280;38190;59.928;10.446;2022-07-05T12:05:43;100109.44;;;22.80;43.16
52227;BME280;38190;59.928;10.446;2022-07-05T12:08:44;100094.13;;;24.18;45.60
52227;BME280;38190;59.928;10.446;2022-07-05T12:11:50;100093.31;;;24.59;39.83
52227;BME280;38190;59.928;10.446;2022-07-05T12:15:10;100101.88;;;23.94;39.74
52227;BME280;38190;59.928;10.446;2022-07-05T12:18:11;100110.31;;;24.17;40.38
52227;BME280;38190;59.928;10.446;2022-07-05T12:21:12;100119.09;;;24.62;38.36
52227;BME280;38190;59.928;10.446;2022-07-05T12:24:14;100093.66;;;24.67;41.42
52227;BME280;38190;59.928;10.446;2022-07-05T12:27:16;100111.84;;;23.17;41.42
52227;BME280;38190;59.928;10.446;2022-07-05T12:30:17;100119.34;;;23.71;37.89
52227;BME280;38190;59.928;10.446;2022-07-05T12:33:20;100108.19;;;23.02;42.50
52227;BME280;38190;59.928;10.446;2022-07-05T12:36:21;100136.34;;;21.44;42.21
52227;BME280;38190;59.928;10.446;2022-07-05T12:39:27;100119.03;;;20.60;43.33
52227;BME280;38190;59.928;10.446;2022-07-05T12:42:32;100131.88;;;20.33;42.48
52227;BME280;38190;59.928;10.446;2022-07-05T12:45:33;100142.91;;;20.25;44.03
52227;BME280;38190;59.928;10.446;2022-07-05T12:48:38;100122.56;;;19.42;49.13
52227;BME280;38190;59.928;10.446;2022-07-05T12:51:41;100109.06;;;19.47;44.39
52227;BME280;38190;59.928;10.446;2022-07-05T12:54:42;100116.63;;;19.56;49.90
52227;BME280;38190;59.928;10.446;2022-07-05T12:58:01;100127.13;;;20.21;48.79
52227;BME280;38190;59.928;10.446;2022-07-05T13:01:27;100132.63;;;20.56;46.87
52227;BME280;38190;59.928;10.446;2022-07-05T13:04:28;100118.34;;;20.57;45.60
52227;BME280;38190;59.928;10.446;2022-07-05T13:07:29;100122.66;;;20.97;46.42
52227;BME280;38190;59.928;10.446;2022-07-05T13:10:29;100120.16;;;21.48;43.97
52227;BME280;38190;59.928;10.446;2022-07-05T13:13:32;100118.56;;;23.54;40.99
52227;BME280;38190;59.928;10.446;2022-07-05T13:16:32;100120.84;;;25.17;42.21
52227;BME280;38190;59.928;10.446;2022-07-05T13:19:33;100106.00;;;22.78;36.64
52227;BME280;38190;59.928;10.446;2022-07-05T13:22:34;100112.72;;;22.04;42.43
52227;BME280;38190;59.928;10.446;2022-07-05T13:25:34;100108.06;;;21.39;43.59
52227;BME280;38190;59.928;10.446;2022-07-05T13:28:35;100113.34;;;21.76;44.84
52227;BME280;38190;59.928;10.446;2022-07-05T13:31:35;100089.66;;;21.86;43.38
52227;BME280;38190;59.928;10.446;2022-07-05T13:34:35;100118.94;;;22.38;40.19
52227;BME280;38190;59.928;10.446;2022-07-05T13:37:36;100116.53;;;22.81;42.58
52227;BME280;38190;59.928;10.446;2022-07-05T13:40:36;100105.84;;;22.81;38.89
52227;BME280;38190;59.928;10.446;2022-07-05T13:43:37;100112.03;;;22.98;39.74
52227;BME280;38190;59.928;10.446;2022-07-05T13:46:38;100113.63;;;23.32;38.17
52227;BME280;38190;59.928;10.446;2022-07-05T13:49:39;100110.38;;;23.27;38.12
52227;BME280;38190;59.928;10.446;2022-07-05T13:52:40;100105.31;;;22.75;35.47
52227;BME280;38190;59.928;10.446;2022-07-05T13:55:41;100115.31;;;22.87;40.06
52227;BME280;38190;59.928;10.446;2022-07-05T13:58:41;100117.69;;;22.77;40.50
52227;BME280;38190;59.928;10.446;2022-07-05T14:01:42;100117.56;;;22.79;38.06
52227;BME280;38190;59.928;10.446;2022-07-05T14:04:42;100113.88;;;23.28;36.46
52227;BME280;38190;59.928;10.446;2022-07-05T14:07:42;100117.66;;;22.61;38.54
52227;BME280;38190;59.928;10.446;2022-07-05T14:10:43;100100.84;;;22.43;39.91
52227;BME280;38190;59.928;10.446;2022-07-05T14:13:43;100117.56;;;22.31;42.36
52227;BME280;38190;59.928;10.446;2022-07-05T14:16:44;100128.03;;;22.18;41.48
52227;BME280;38190;59.928;10.446;2022-07-05T14:19:44;100123.53;;;22.19;39.77
52227;BME280;38190;59.928;10.446;2022-07-05T14:22:45;100121.66;;;21.87;42.94
52227;BME280;38190;59.928;10.446;2022-07-05T14:25:45;100117.81;;;21.75;41.10
52227;BME280;38190;59.928;10.446;2022-07-05T14:28:46;100118.09;;;20.99;43.94
52227;BME280;38190;59.928;10.446;2022-07-05T14:31:46;100106.34;;;21.04;43.55
52227;BME280;38190;59.928;10.446;2022-07-05T14:34:47;100110.31;;;22.65;39.39
52227;BME280;38190;59.928;10.446;2022-07-05T14:37:47;100111.16;;;21.67;41.52
52227;BME280;38190;59.928;10.446;2022-07-05T14:40:48;100104.91;;;21.50;42.67
52227;BME280;38190;59.928;10.446;2022-07-05T14:43:48;100095.91;;;21.16;43.90
52227;BME280;38190;59.928;10.446;2022-07-05T14:46:49;100106.97;;;20.53;49.20
52227;BME280;38190;59.928;10.446;2022-07-05T14:49:49;100098.81;;;20.18;43.47
52227;BME280;38190;59.928;10.446;2022-07-05T14:52:49;100100.47;;;20.40;45.63
52227;BME280;38190;59.928;10.446;2022-07-05T14:55:50;100095.09;;;20.22;47.76
52227;BME280;38190;59.928;10.446;2022-07-05T14:58:51;100098.81;;;20.56;45.76
52227;BME280;38190;59.928;10.446;2022-07-05T15:01:51;100094.41;;;20.55;41.63
52227;BME280;38190;59.928;10.446;2022-07-05T15:04:52;100098.63;;;21.15;45.81
52227;BME280;38190;59.928;10.446;2022-07-05T15:07:53;100103.50;;;21.07;45.85
52227;BME280;38190;59.928;10.446;2022-07-05T15:10:53;100114.88;;;20.93;41.74
52227;BME280;38190;59.928;10.446;2022-07-05T15:13:54;100096.59;;;20.66;47.12
52227;BME280;38190;59.928;10.446;2022-07-05T15:16:55;100104.75;;;20.44;46.55
52227;BME280;38190;59.928;10.446;2022-07-05T15:19:55;100114.78;;;20.94;45.18
52227;BME280;38190;59.928;10.446;2022-07-05T15:22:57;100107.84;;;21.44;45.38
52227;BME280;38190;59.928;10.446;2022-07-05T15:25:57;100101.53;;;22.14;42.65
52227;BME280;38190;59.928;10.446;2022-07-05T15:29:06;100103.66;;;23.79;43.26
52227;BME280;38190;59.928;10.446;2022-07-05T15:32:06;100098.66;;;25.14;37.28
52227;BME280;38190;59.928;10.446;2022-07-05T15:35:07;100086.44;;;25.75;36.45
52227;BME280;38190;59.928;10.446;2022-07-05T15:38:08;100085.78;;;25.06;35.80
52227;BME280;38190;59.928;10.446;2022-07-05T15:41:08;100072.94;;;25.24;35.02
52227;BME280;38190;59.928;10.446;2022-07-05T15:44:09;100082.75;;;25.38;33.32
52227;BME280;38190;59.928;10.446;2022-07-05T15:47:10;100084.16;;;25.95;34.95
52227;BME280;38190;59.928;10.446;2022-07-05T15:50:12;100071.69;;;24.34;32.91
52227;BME280;38190;59.928;10.446;2022-07-05T15:53:13;100081.19;;;24.81;33.73
52227;BME280;38190;59.928;10.446;2022-07-05T15:56:13;100064.09;;;24.40;35.50
52227;BME280;38190;59.928;10.446;2022-07-05T15:59:14;100067.75;;;24.81;37.44
52227;BME280;38190;59.928;10.446;2022-07-05T16:02:14;100071.56;;;25.04;37.39
52227;BME280;38190;59.928;10.446;2022-07-05T16:05:15;100092.13;;;25.18;35.04
52227;BME280;38190;59.928;10.446;2022-07-05T16:08:16;100091.63;;;23.42;39.59
52227;BME280;38190;59.928;10.446;2022-07-05T16:11:17;100073.69;;;23.58;38.64
52227;BME280;38190;59.928;10.446;2022-07-05T16:14:17;100094.19;;;24.60;34.43